Time;durP1;ratioP1;P1;durP2;ratioP2;P2;SDS_P1;SDS_P2;PMS_P1;PMS_P2;Temp;Humidity;BMP_temperature;BMP_pressure;BME280_temperature;BME280_humidity;BME280_pressure;Samples;Min_cycle;Max_cycle;Signal;HPM_P1;HPM_P2
2023/07/22 00:09:50;;;;;;;2.77;2.50;;;18.90;92.00;;;;;;20838001;28;20262;-63
2023/07/22 00:19:52;;;;;;;4.90;2.30;;;;;;;;;;20836939;28;20237;-63
2023/07/22 00:29:54;;;;;;;4.07;2.50;;;18.90;91.90;;;;;;20835372;28;20205;-63
2023/07/22 00:39:56;;;;;;;3.13;2.57;;;18.90;91.90;;;;;;20835168;28;20755;-63
2023/07/22 00:49:59;;;;;;;3.53;2.60;;;18.80;91.90;;;;;;20834456;28;20236;-63
2023/07/22 01:00:01;;;;;;;3.40;2.33;;;18.80;92.00;;;;;;20833701;28;20245;-64
2023/07/22 01:10:05;;;;;;;4.20;2.40;;;18.90;91.90;;;;;;20832912;28;20649;-63
2023/07/22 01:20:09;;;;;;;4.87;2.53;;;18.80;91.90;;;;;;20843287;28;20240;-64
2023/07/22 01:30:11;;;;;;;2.70;2.33;;;18.70;91.90;;;;;;20866175;28;20332;-63
2023/07/22 01:40:14;;;;;;;3.93;2.77;;;18.70;92.00;;;;;;20830523;28;20321;-63
2023/07/22 01:50:18;;;;;;;3.73;2.50;;;18.70;91.90;;;;;;20830286;28;20210;-63
2023/07/22 02:00:20;;;;;;;3.17;2.60;;;;;;;;;;20830039;28;20234;-63
2023/07/22 02:10:23;;;;;;;2.90;2.50;;;;;;;;;;20829470;28;20213;-62
2023/07/22 02:20:28;;;;;;;5.03;2.70;;;;;;;;;;20844319;28;20235;-64
2023/07/22 02:30:31;;;;;;;5.87;2.80;;;;;;;;;;20829244;28;20226;-63
2023/07/22 02:40:35;;;;;;;2.83;2.60;;;18.70;91.70;;;;;;20828512;28;20321;-66
2023/07/22 02:50:37;;;;;;;3.37;2.47;;;;;;;;;;20834598;28;20218;-65
2023/07/22 03:00:39;;;;;;;2.67;2.47;;;18.60;91.30;;;;;;20876416;28;20238;-69
2023/07/22 03:10:41;;;;;;;3.77;2.97;;;;;;;;;;20842356;28;20681;-64
2023/07/22 03:20:43;;;;;;;2.97;2.70;;;;;;;;;;20841274;28;20272;-63
2023/07/22 03:30:45;;;;;;;5.17;2.87;;;;;;;;;;20841081;28;20657;-64
2023/07/22 03:40:47;;;;;;;3.80;2.87;;;;;;;;;;20839864;28;20316;-63
2023/07/22 03:50:50;;;;;;;4.33;3.10;;;;;;;;;;20839219;28;20237;-62
2023/07/22 04:01:01;;;;;;;5.40;3.17;;;;;;;;;;20838363;28;20433;-62
2023/07/22 04:11:03;;;;;;;4.07;2.97;;;;;;;;;;20837519;28;20208;-62
2023/07/22 04:21:05;;;;;;;4.13;2.90;;;17.80;93.50;;;;;;20836774;28;20275;-64
2023/07/22 04:31:07;;;;;;;5.10;3.00;;;17.90;93.90;;;;;;20836609;28;20208;-65
2023/07/22 04:41:09;;;;;;;4.67;3.03;;;;;;;;;;20835543;28;20240;-64
2023/07/22 04:51:11;;;;;;;3.47;3.00;;;;;;;;;;20834600;28;20701;-64
2023/07/22 05:01:14;;;;;;;4.50;3.13;;;;;;;;;;20834148;28;20241;-65
2023/07/22 05:11:16;;;;;;;4.07;3.23;;;;;;;;;;20832499;28;20208;-65
2023/07/22 05:21:18;;;;;;;3.40;3.10;;;;;;;;;;20832059;28;20756;-64
2023/07/22 05:31:20;;;;;;;5.83;3.47;;;18.20;95.40;;;;;;20870693;28;20200;-64
2023/07/22 05:41:23;;;;;;;5.27;3.37;;;;;;;;;;20835431;28;20699;-63
2023/07/22 05:51:24;;;;;;;10.20;3.80;;;18.40;95.20;;;;;;20829826;28;20269;-64
2023/07/22 06:01:26;;;;;;;5.87;3.40;;;18.40;95.40;;;;;;20826856;28;20682;-64
2023/07/22 06:11:28;;;;;;;4.77;3.30;;;18.60;95.20;;;;;;20829426;28;20237;-64
2023/07/22 06:21:30;;;;;;;8.73;3.30;;;18.90;94.90;;;;;;20829181;28;20245;-68
2023/07/22 06:31:32;;;;;;;3.23;2.73;;;19.10;94.00;;;;;;20845419;28;20316;-68
2023/07/22 06:41:34;;;;;;;4.47;3.27;;;19.30;93.10;;;;;;20843710;28;20231;-68
2023/07/22 06:51:36;;;;;;;3.30;3.00;;;19.40;92.10;;;;;;20842209;28;20211;-67
2023/07/22 07:01:38;;;;;;;5.77;3.20;;;19.60;91.80;;;;;;20852996;28;20285;-68
2023/07/22 07:11:39;;;;;;;4.60;3.37;;;19.70;90.90;;;;;;20893205;28;20250;-63
2023/07/22 07:21:41;;;;;;;3.53;2.83;;;20.10;90.00;;;;;;20923291;28;20668;-65
2023/07/22 07:31:43;;;;;;;6.13;3.20;;;20.20;90.20;;;;;;20946075;28;20212;-64
2023/07/22 07:41:45;;;;;;;6.70;2.90;;;20.40;89.10;;;;;;20989630;28;20689;-68
2023/07/22 07:51:46;;;;;;;4.27;3.00;;;20.60;87.70;;;;;;20922891;28;20199;-68
2023/07/22 08:01:48;;;;;;;4.90;2.70;;;20.90;86.10;;;;;;20944039;28;20242;-68
2023/07/22 08:11:50;;;;;;;3.10;2.70;;;21.10;84.20;;;;;;20941078;28;20262;-67
2023/07/22 08:21:52;;;;;;;8.60;3.20;;;21.20;81.60;;;;;;20843820;28;20723;-64
2023/07/22 08:31:54;;;;;;;4.87;2.97;;;21.30;80.70;;;;;;20836397;28;20678;-69
2023/07/22 08:41:57;;;;;;;5.20;2.97;;;21.20;78.80;;;;;;20979247;28;20332;-69
2023/07/22 08:52:00;;;;;;;3.70;2.50;;;21.50;77.50;;;;;;20974654;28;20206;-62
2023/07/22 09:02:02;;;;;;;3.90;2.93;;;21.70;76.40;;;;;;20915931;28;20243;-66
2023/07/22 09:12:07;;;;;;;4.10;2.90;;;22.00;74.60;;;;;;20915317;28;20204;-77
2023/07/22 09:22:09;;;;;;;5.57;2.90;;;22.20;71.90;;;;;;20914656;28;20231;-77
2023/07/22 09:32:11;;;;;;;4.43;2.90;;;22.40;69.00;;;;;;20914588;28;20299;-69
2023/07/22 09:42:24;;;;;;;6.00;2.67;;;22.40;69.40;;;;;;20988143;28;20317;-71
2023/07/22 09:52:26;;;;;;;7.43;2.90;;;23.00;68.90;;;;;;20995858;28;20210;-71
2023/07/22 10:02:33;;;;;;;3.90;2.57;;;23.10;68.10;;;;;;20995142;28;20243;-76
2023/07/22 10:12:35;;;;;;;6.30;2.30;;;23.50;66.30;;;;;;20994570;28;20215;-75
2023/07/22 10:22:37;;;;;;;4.03;2.37;;;23.90;64.80;;;;;;20994338;28;20326;-74
2023/07/22 10:32:44;;;;;;;7.70;2.87;;;23.90;62.50;;;;;;20994679;28;20306;-75
2023/07/22 10:43:04;;;;;;;4.60;2.60;;;24.00;60.70;;;;;;20913042;28;20238;-64
2023/07/22 10:53:09;;;;;;;7.90;3.10;;;24.00;59.90;;;;;;20909349;28;20204;-65
2023/07/22 11:03:13;;;;;;;4.83;3.23;;;23.90;58.20;;;;;;20909598;28;20251;-63
2023/07/22 11:13:15;;;;;;;4.53;2.70;;;24.20;56.10;;;;;;20878584;28;20201;-65
2023/07/22 11:23:17;;;;;;;5.10;2.73;;;24.30;54.40;;;;;;20841372;28;20228;-67
2023/07/22 11:33:19;;;;;;;3.23;2.47;;;24.40;54.50;;;;;;20843914;28;20296;-63
2023/07/22 11:43:21;;;;;;;4.63;2.60;;;24.50;55.00;;;;;;21005551;28;20274;-63
2023/07/22 11:53:27;;;;;;;5.27;2.40;;;24.80;53.50;;;;;;20923624;28;20581;-66
2023/07/22 12:03:33;;;;;;;6.03;3.40;;;25.10;52.70;;;;;;20919217;28;20301;-61
2023/07/22 12:13:38;;;;;;;6.40;2.40;;;25.20;51.40;;;;;;20920701;28;20226;-71
2023/07/22 12:23:41;;;;;;;132.30;8.83;;;25.40;51.70;;;;;;20919312;28;20231;-69
2023/07/22 12:33:42;;;;;;;5.43;2.13;;;25.50;50.00;;;;;;20882163;28;20584;-74
2023/07/22 12:43:44;;;;;;;3.20;2.20;;;25.00;48.90;;;;;;20873959;28;20241;-80
2023/07/22 12:53:46;;;;;;;4.70;2.10;;;25.00;49.40;;;;;;20876647;28;20212;-69
2023/07/22 13:03:48;;;;;;;3.93;2.37;;;25.20;48.70;;;;;;20867990;28;20261;-70
2023/07/22 13:13:50;;;;;;;3.47;2.50;;;25.10;49.10;;;;;;20865336;28;20258;-69
2023/07/22 13:23:52;;;;;;;5.30;2.53;;;25.10;49.40;;;;;;20870998;28;20327;-65
2023/07/22 13:33:54;;;;;;;3.47;2.30;;;25.10;50.00;;;;;;20864640;28;20200;-65
2023/07/22 13:43:55;;;;;;;4.77;2.53;;;25.20;50.90;;;;;;20851533;28;20232;-63
2023/07/22 13:53:58;;;;;;;3.03;2.30;;;25.40;52.20;;;;;;20866429;28;20244;-66
2023/07/22 14:04:00;;;;;;;5.00;2.10;;;25.60;51.40;;;;;;20863672;28;20246;-66
2023/07/22 14:14:02;;;;;;;2.77;2.17;;;25.60;51.00;;;;;;20863267;28;20711;-63
2023/07/22 14:24:04;;;;;;;5.43;2.10;;;25.50;50.50;;;;;;20873709;28;20247;-70
2023/07/22 14:34:06;;;;;;;2.23;2.00;;;25.40;50.60;;;;;;20863446;28;20205;-74
2023/07/22 14:44:08;;;;;;;2.20;2.00;;;25.60;50.10;;;;;;20870656;28;20751;-77
2023/07/22 14:54:10;;;;;;;3.40;2.03;;;25.20;50.70;;;;;;20882355;28;20287;-62
2023/07/22 15:04:12;;;;;;;2.53;1.80;;;25.50;50.60;;;;;;20878185;28;20268;-65
2023/07/22 15:14:15;;;;;;;2.40;2.00;;;26.60;49.30;;;;;;20878160;28;20299;-62
2023/07/22 15:24:16;;;;;;;3.90;2.10;;;26.70;48.80;;;;;;20884180;28;20239;-75
2023/07/22 15:34:18;;;;;;;5.83;1.90;;;25.90;48.90;;;;;;20876182;28;20213;-81
2023/07/22 15:44:22;;;;;;;3.13;1.90;;;25.40;49.20;;;;;;20875691;28;20596;-66
2023/07/22 15:54:24;;;;;;;4.87;2.30;;;25.30;49.60;;;;;;20876697;28;20224;-62
2023/07/22 16:04:27;;;;;;;3.97;2.10;;;25.30;49.60;;;;;;20901603;28;20294;-76
2023/07/22 16:14:28;;;;;;;5.40;2.20;;;25.10;49.90;;;;;;20849861;28;20615;-78
2023/07/22 16:24:30;;;;;;;2.93;2.20;;;26.00;49.40;;;;;;20836960;28;20275;-72
2023/07/22 16:34:32;;;;;;;5.83;2.00;;;26.50;48.20;;;;;;20833973;28;20204;-73
2023/07/22 16:44:34;;;;;;;3.60;2.30;;;26.50;48.30;;;;;;20835297;28;20232;-70
2023/07/22 16:54:35;;;;;;;5.07;2.13;;;26.40;48.50;;;;;;20834348;28;20292;-76
2023/07/22 17:04:37;;;;;;;5.57;2.50;;;26.10;48.90;;;;;;20833090;28;20339;-63
2023/07/22 17:14:39;;;;;;;3.57;2.50;;;25.60;48.30;;;;;;20832356;28;20240;-63
2023/07/22 17:24:41;;;;;;;3.50;2.60;;;25.40;48.00;;;;;;20831694;28;20323;-63
2023/07/22 17:34:42;;;;;;;4.67;2.47;;;26.60;46.30;;;;;;20829743;28;20267;-61
2023/07/22 17:44:46;;;;;;;3.28;2.60;;;27.10;45.80;;;;;;20830724;28;20326;-61
2023/07/22 17:54:48;;;;;;;11.73;2.55;;;29.10;43.10;;;;;;20830142;28;20283;-61
2023/07/22 18:04:50;;;;;;;4.20;2.43;;;27.80;43.40;;;;;;20829411;28;20331;-61
2023/07/22 18:14:51;;;;;;;3.20;2.57;;;26.50;44.60;;;;;;20829761;28;20207;-60
2023/07/22 18:24:53;;;;;;;2.83;2.50;;;25.60;45.30;;;;;;20843494;28;20236;-61
2023/07/22 18:34:59;;;;;;;4.43;2.87;;;25.10;45.90;;;;;;20845150;28;20292;-61
2023/07/22 18:45:01;;;;;;;3.20;2.83;;;24.90;46.40;;;;;;20844595;28;20229;-61
2023/07/22 18:55:02;;;;;;;11.23;3.20;;;24.50;47.00;;;;;;20843546;28;20208;-61
2023/07/22 19:05:05;;;;;;;6.47;3.20;;;24.30;47.80;;;;;;20842923;28;20246;-60
2023/07/22 19:15:07;;;;;;;11.30;3.20;;;24.00;48.60;;;;;;20842651;28;20209;-59
2023/07/22 19:25:09;;;;;;;5.30;3.07;;;23.80;49.10;;;;;;20841298;28;20322;-60
2023/07/22 19:35:11;;;;;;;4.77;2.90;;;23.70;49.40;;;;;;20839823;28;20205;-64
2023/07/22 19:45:12;;;;;;;9.27;3.20;;;23.40;49.60;;;;;;20839450;28;20235;-61
2023/07/22 19:55:14;;;;;;;3.97;2.90;;;23.20;50.10;;;;;;20838285;28;20236;-68
2023/07/22 20:05:16;;;;;;;8.93;2.83;;;23.10;50.60;;;;;;20836873;28;20333;-66
2023/07/22 20:15:18;;;;;;;5.43;2.93;;;23.00;50.90;;;;;;20838000;28;20284;-62
2023/07/22 20:25:19;;;;;;;11.03;3.30;;;22.90;51.10;;;;;;20836694;28;20272;-64
2023/07/22 20:35:21;;;;;;;8.20;3.87;;;22.80;51.40;;;;;;20835500;28;20215;-62
2023/07/22 20:45:23;;;;;;;6.03;3.77;;;22.40;52.40;;;;;;20833930;28;20282;-62
2023/07/22 20:55:25;;;;;;;6.47;3.57;;;22.10;53.60;;;;;;20834010;28;20267;-61
2023/07/22 21:05:26;;;;;;;8.03;3.30;;;21.90;54.80;;;;;;20832927;28;20255;-61
2023/07/22 21:15:28;;;;;;;12.67;4.30;;;21.80;55.10;;;;;;20831312;28;20201;-61
2023/07/22 21:25:30;;;;;;;7.23;4.07;;;21.60;55.70;;;;;;20829866;28;20268;-61
2023/07/22 21:35:35;;;;;;;9.47;4.83;;;21.50;55.90;;;;;;20829018;28;20217;-63
2023/07/22 21:45:39;;;;;;;10.37;3.80;;;21.20;56.90;;;;;;20828905;28;20677;-61
2023/07/22 21:55:40;;;;;;;7.17;4.23;;;21.30;56.60;;;;;;20842945;28;20620;-61
2023/07/22 22:05:42;;;;;;;6.77;4.20;;;21.20;58.00;;;;;;20826854;28;20718;-62
2023/07/22 22:15:45;;;;;;;6.43;4.70;;;;;;;;;;20827478;28;20656;-63
2023/07/22 22:25:47;;;;;;;7.77;4.60;;;20.70;59.90;;;;;;20842126;28;20271;-65
2023/07/22 22:35:49;;;;;;;9.60;4.60;;;20.60;61.80;;;;;;20826217;28;20212;-65
2023/07/22 22:45:51;;;;;;;11.50;4.70;;;20.40;61.90;;;;;;20826241;28;20308;-64
2023/07/22 22:55:53;;;;;;;7.30;4.80;;;20.20;63.40;;;;;;20826911;28;20216;-61
2023/07/22 23:05:55;;;;;;;7.30;4.63;;;19.90;64.30;;;;;;20831536;28;20377;-63
2023/07/22 23:15:56;;;;;;;6.80;4.77;;;19.70;65.00;;;;;;20842617;28;20209;-65
2023/07/22 23:25:58;;;;;;;7.53;4.40;;;19.60;65.60;;;;;;20841551;28;20238;-62
2023/07/22 23:36:03;;;;;;;6.50;4.17;;;19.50;66.00;;;;;;20840762;28;20211;-62
2023/07/22 23:46:05;;;;;;;6.83;4.67;;;19.40;67.00;;;;;;20840091;28;20329;-61
2023/07/22 23:56:07;;;;;;;8.20;4.50;;;19.40;67.30;;;;;;20839732;28;20210;-62
